Time;durP1;ratioP1;P1;durP2;ratioP2;P2;SDS_P1;SDS_P2;PMS_P1;PMS_P2;Temp;Humidity;BMP_temperature;BMP_pressure;BME280_temperature;BME280_humidity;BME280_pressure;Samples;Min_cycle;Max_cycle;Signal;HPM_P1;HPM_P2
2021/12/27 00:00:39;;;;;;;;;;;128.50;2252.80;;;;;;5064062;28;20028;-80
2021/12/27 00:03:06;;;;;;;18.65;10.00;;;128.40;2252.80;;;;;;5076310;28;19904;-77
2021/12/27 00:05:32;;;;;;;25.55;13.68;;;128.40;2252.80;;;;;;5063598;28;20369;-75
2021/12/27 00:07:58;;;;;;;;;;;128.40;2252.80;;;;;;5083385;28;20023;-80
2021/12/27 00:10:25;;;;;;;23.67;12.30;;;128.30;2252.80;;;;;;5097880;28;19923;-75
2021/12/27 00:12:51;;;;;;;29.90;14.20;;;128.20;2252.80;;;;;;5081728;28;20016;-81
2021/12/27 00:15:17;;;;;;;;;;;128.20;2252.80;;;;;;5065685;28;20028;-80
2021/12/27 00:17:44;;;;;;;26.83;14.32;;;128.20;2252.80;;;;;;5087028;28;20321;-84
2021/12/27 00:20:14;;;;;;;24.55;13.73;;;128.30;2252.80;;;;;;5081487;28;20471;-84
2021/12/27 00:22:40;;;;;;;23.90;12.07;;;128.40;2252.80;;;;;;5064625;28;20403;-79
2021/12/27 00:25:07;;;;;;;26.00;13.40;;;128.40;2252.80;;;;;;5067393;28;20071;-76
2021/12/27 00:27:33;;;;;;;26.15;14.00;;;128.40;2252.80;;;;;;5062341;28;20049;-76
2021/12/27 00:29:59;;;;;;;;;;;128.50;2252.80;;;;;;5062610;28;20077;-81
2021/12/27 00:32:25;;;;;;;30.85;14.18;;;128.50;2252.80;;;;;;5071041;28;19908;-79
2021/12/27 00:34:50;;;;;;;;;;;128.40;2252.80;;;;;;5064189;28;20029;-77
2021/12/27 00:37:16;;;;;;;26.48;13.63;;;128.40;2252.80;;;;;;5062178;28;19908;-75
2021/12/27 00:39:41;;;;;;;;;;;128.40;2252.80;;;;;;5065336;28;20013;-75
2021/12/27 00:42:07;;;;;;;27.15;13.25;;;128.30;2252.80;;;;;;5064878;28;19959;-77
2021/12/27 00:44:33;;;;;;;;;;;128.20;2252.80;;;;;;5066046;28;20027;-81
2021/12/27 00:47:00;;;;;;;26.17;12.48;;;128.30;2252.80;;;;;;5066820;28;19939;-75
2021/12/27 00:49:26;;;;;;;27.52;14.40;;;128.20;2252.80;;;;;;5069581;28;20028;-77
2021/12/27 00:51:52;;;;;;;;;;;128.30;2252.80;;;;;;5070599;28;20388;-79
2021/12/27 00:54:18;;;;;;;26.33;13.52;;;128.30;2252.80;;;;;;5072522;28;19905;-82
2021/12/27 00:56:44;;;;;;;28.20;15.45;;;128.30;2252.80;;;;;;5065224;28;20021;-75
2021/12/27 00:59:10;;;;;;;;;;;128.30;2252.80;;;;;;5071287;28;20202;-86
2021/12/27 01:01:36;;;;;;;28.23;14.90;;;128.30;2252.80;;;;;;5064518;28;19911;-76
2021/12/27 01:04:01;;;;;;;;;;;128.30;2252.80;;;;;;5063957;28;20021;-87
2021/12/27 01:06:27;;;;;;;24.70;12.65;;;128.30;2252.80;;;;;;5065259;28;20253;-77
2021/12/27 01:08:53;;;;;;;;;;;128.30;2252.80;;;;;;5063648;28;20026;-77
2021/12/27 01:11:46;;;;;;;26.17;13.50;;;128.20;2252.80;;;;;;5067290;28;19912;-76
2021/12/27 01:14:15;;;;;;;28.13;13.15;;;128.30;2252.80;;;;;;5062294;28;20020;-78
2021/12/27 01:16:43;;;;;;;21.85;12.98;;;128.20;2252.80;;;;;;5069469;28;20074;-75
2021/12/27 01:19:10;;;;;;;32.83;15.75;;;128.20;2252.80;;;;;;5072605;28;20024;-81
2021/12/27 01:21:36;;;;;;;25.48;13.20;;;128.20;2252.80;;;;;;5055281;28;20043;-75
2021/12/27 01:24:04;;;;;;;26.17;14.20;;;128.20;2252.80;;;;;;5060568;28;20112;-75
2021/12/27 01:26:29;;;;;;;25.05;13.80;;;128.30;2252.80;;;;;;5066835;28;20131;-75
2021/12/27 01:29:06;;;;;;;;;;;128.30;2252.80;;;;;;5072153;28;20099;-80
2021/12/27 01:31:32;;;;;;;22.77;12.30;;;128.50;2252.80;;;;;;5070524;28;20006;-84
2021/12/27 01:33:58;;;;;;;;;;;128.50;2252.80;;;;;;5072768;28;20105;-75
2021/12/27 01:36:23;;;;;;;26.58;13.93;;;128.50;2252.80;;;;;;5072206;28;19947;-82
2021/12/27 01:38:49;;;;;;;;;;;128.40;2252.80;;;;;;5071122;28;20025;-84
2021/12/27 01:41:17;;;;;;;25.00;13.82;;;128.10;2252.80;;;;;;5068821;28;20359;-76
2021/12/27 01:43:43;;;;;;;25.98;14.25;;;128.20;2252.80;;;;;;5071407;28;20024;-81
2021/12/27 01:46:10;;;;;;;;;;;128.30;2252.80;;;;;;5071098;28;20016;-75
2021/12/27 01:48:39;;;;;;;26.63;14.93;;;128.20;2252.80;;;;;;5070292;28;19948;-83
2021/12/27 01:51:09;;;;;;;30.42;15.02;;;128.20;2252.80;;;;;;5071659;28;20024;-77
2021/12/27 01:53:36;;;;;;;27.88;15.45;;;128.20;2252.80;;;;;;5069445;28;20009;-80
2021/12/27 01:56:05;;;;;;;31.05;14.23;;;128.20;2252.80;;;;;;5071097;28;20384;-77
2021/12/27 01:58:32;;;;;;;31.30;16.40;;;128.30;2252.80;;;;;;5062958;28;20025;-78
2021/12/27 02:01:00;;;;;;;24.45;15.40;;;128.30;2252.80;;;;;;5064380;28;20021;-79
2021/12/27 02:03:29;;;;;;;30.73;15.95;;;128.20;2252.80;;;;;;5066480;28;20036;-80
2021/12/27 02:05:55;;;;;;;31.58;16.45;;;128.40;2252.80;;;;;;5065101;28;20044;-81
2021/12/27 02:08:21;;;;;;;30.70;16.70;;;128.40;2252.80;;;;;;5065733;28;20036;-82
2021/12/27 02:10:49;;;;;;;28.27;16.50;;;128.40;2252.80;;;;;;5073654;28;20032;-74
2021/12/27 02:13:15;;;;;;;27.95;15.02;;;128.30;2252.80;;;;;;5073686;28;20464;-74
2021/12/27 02:15:42;;;;;;;29.33;16.15;;;128.30;2252.80;;;;;;5073135;28;20438;-74
2021/12/27 02:18:11;;;;;;;30.00;15.25;;;128.20;2252.80;;;;;;5061803;28;20064;-82
2021/12/27 02:20:38;;;;;;;32.85;16.95;;;128.10;2252.80;;;;;;5064650;28;20052;-82
2021/12/27 02:23:11;;;;;;;35.33;16.23;;;128.20;2252.80;;;;;;5065378;28;20449;-78
2021/12/27 02:25:37;;;;;;;31.92;16.70;;;128.20;2252.80;;;;;;5065005;28;20024;-81
2021/12/27 02:28:04;;;;;;;;;;;128.30;2252.80;;;;;;5066481;28;20100;-75
2021/12/27 02:30:31;;;;;;;22.98;12.20;;;128.30;2252.80;;;;;;5062591;28;20303;-75
2021/12/27 02:33:00;;;;;;;32.80;14.80;;;128.20;2252.80;;;;;;5066097;28;20017;-79
2021/12/27 02:35:37;;;;;;;31.50;16.10;;;128.10;2252.80;;;;;;5063630;28;20051;-81
2021/12/27 02:38:04;;;;;;;31.60;15.23;;;128.10;2252.80;;;;;;5062466;28;20458;-74
2021/12/27 02:40:32;;;;;;;24.52;14.57;;;128.10;2252.80;;;;;;5063482;28;20116;-76
2021/12/27 02:43:00;;;;;;;33.67;16.02;;;128.20;2252.80;;;;;;5064301;28;20097;-75
2021/12/27 02:45:28;;;;;;;28.88;15.70;;;128.10;2252.80;;;;;;5065951;28;20104;-80
2021/12/27 02:47:54;;;;;;;28.48;15.82;;;128.20;2252.80;;;;;;5061911;28;20028;-81
2021/12/27 02:50:21;;;;;;;29.25;15.95;;;128.20;2252.80;;;;;;5062389;28;20045;-81
2021/12/27 02:52:46;;;;;;;28.63;15.73;;;128.20;2252.80;;;;;;5068248;28;20020;-79
2021/12/27 02:55:15;;;;;;;;;;;128.10;2252.80;;;;;;5057042;28;20365;-81
2021/12/27 02:57:45;;;;;;;29.48;15.77;;;128.10;2252.80;;;;;;5057420;28;19959;-75
2021/12/27 03:00:16;;;;;;;31.50;16.27;;;128.20;2252.80;;;;;;5065175;28;20025;-78
2021/12/27 03:02:47;;;;;;;30.98;16.75;;;128.20;2252.80;;;;;;5062860;28;20028;-86
2021/12/27 03:05:16;;;;;;;27.73;14.88;;;128.10;2252.80;;;;;;5062406;28;20021;-75
2021/12/27 03:07:43;;;;;;;30.60;16.58;;;128.20;2252.80;;;;;;5060540;28;20035;-77
2021/12/27 03:10:11;;;;;;;32.17;16.27;;;128.10;2252.80;;;;;;5065185;28;20031;-84
2021/12/27 03:12:38;;;;;;;32.92;17.48;;;128.20;2252.80;;;;;;5069072;28;20055;-76
2021/12/27 03:15:15;;;;;;;31.42;16.27;;;128.20;2252.80;;;;;;5071247;28;20083;-75
2021/12/27 03:17:43;;;;;;;28.88;16.75;;;128.10;2252.80;;;;;;5065691;28;20498;-75
2021/12/27 03:20:10;;;;;;;34.88;18.60;;;128.20;2252.80;;;;;;5065915;28;20050;-75
2021/12/27 03:22:41;;;;;;;35.25;17.73;;;128.20;2252.80;;;;;;5075595;28;20017;-74
2021/12/27 03:25:11;;;;;;;31.63;17.25;;;128.10;2252.80;;;;;;5074902;28;20016;-83
2021/12/27 03:27:38;;;;;;;32.72;17.25;;;128.10;2252.80;;;;;;5061733;28;20044;-81
2021/12/27 03:30:28;;;;;;;33.38;16.58;;;128.20;2252.80;;;;;;5064558;28;20033;-84
2021/12/27 03:32:54;;;;;;;29.58;16.38;;;128.30;2252.80;;;;;;5062026;28;20037;-85
2021/12/27 03:35:34;;;;;;;34.80;17.63;;;128.30;2252.80;;;;;;5065494;28;20470;-84
2021/12/27 03:38:02;;;;;;;30.15;16.55;;;128.30;2252.80;;;;;;5063847;28;20489;-84
2021/12/27 03:40:28;;;;;;;29.65;16.45;;;128.40;2252.80;;;;;;5064060;28;20031;-77
2021/12/27 03:42:54;;;;;;;;;;;128.40;2252.80;;;;;;5063294;28;20461;-75
2021/12/27 03:45:26;;;;;;;26.10;15.13;;;128.30;2252.80;;;;;;5060510;28;19934;-75
2021/12/27 03:47:53;;;;;;;29.38;15.60;;;128.30;2252.80;;;;;;5060438;28;20024;-85
2021/12/27 03:50:19;;;;;;;27.73;14.75;;;128.30;2252.80;;;;;;5058995;28;20374;-74
2021/12/27 03:52:45;;;;;;;26.77;15.75;;;128.30;2252.80;;;;;;5064693;28;20067;-82
2021/12/27 03:55:11;;;;;;;27.65;15.55;;;128.40;2252.80;;;;;;5065248;28;20032;-75
2021/12/27 03:57:41;;;;;;;26.95;13.93;;;128.30;2252.80;;;;;;5063573;28;20052;-75
2021/12/27 04:02:49;;;;;;;29.80;16.55;;;128.20;2252.80;;;;;;5061149;28;20146;-80
2021/12/27 04:05:15;;;;;;;29.98;16.17;;;128.40;2252.80;;;;;;5063858;28;20444;-84
2021/12/27 04:07:43;;;;;;;27.35;16.25;;;128.30;2252.80;;;;;;5062997;28;20469;-75
2021/12/27 04:10:11;;;;;;;22.33;13.65;;;128.30;2252.80;;;;;;5061553;28;20021;-79
2021/12/27 04:12:38;;;;;;;30.90;16.73;;;128.30;2252.80;;;;;;5064581;28;20072;-75
2021/12/27 04:15:07;;;;;;;25.85;14.45;;;128.30;2252.80;;;;;;5062042;28;20021;-74
2021/12/27 04:17:33;;;;;;;26.52;16.38;;;128.40;2252.80;;;;;;5062906;28;20071;-75
2021/12/27 04:19:59;;;;;;;;;;;128.30;2252.80;;;;;;5064236;28;20025;-75
2021/12/27 04:22:25;;;;;;;27.70;15.73;;;128.40;2252.80;;;;;;5060740;28;20011;-85
2021/12/27 04:24:51;;;;;;;23.13;14.70;;;128.30;2252.80;;;;;;5060493;28;20028;-75
2021/12/27 04:27:16;;;;;;;;;;;128.30;2252.80;;;;;;5071101;28;20049;-84
2021/12/27 04:29:42;;;;;;;29.30;15.40;;;128.40;2252.80;;;;;;5082360;28;19916;-85
2021/12/27 04:32:08;;;;;;;;;;;128.40;2252.80;;;;;;5083817;28;20452;-74
2021/12/27 04:34:34;;;;;;;30.27;15.10;;;128.30;2252.80;;;;;;5065814;28;19904;-79
2021/12/27 04:37:00;;;;;;;;;;;128.30;2252.80;;;;;;5081456;28;20080;-85
2021/12/27 04:39:26;;;;;;;27.00;13.85;;;128.40;2252.80;;;;;;5083297;28;19936;-78
2021/12/27 04:41:53;;;;;;;27.40;14.10;;;128.30;2252.80;;;;;;5081114;28;20099;-79
2021/12/27 04:44:19;;;;;;;24.30;13.60;;;128.30;2252.80;;;;;;5083045;28;20103;-76
2021/12/27 04:46:45;;;;;;;;;;;128.10;2252.80;;;;;;5083784;28;20103;-75
2021/12/27 04:49:10;;;;;;;20.55;12.90;;;128.20;2252.80;;;;;;5083769;28;19981;-78
2021/12/27 04:51:36;;;;;;;;;;;128.20;2252.80;;;;;;5063275;28;20384;-75
2021/12/27 04:54:02;;;;;;;29.35;16.13;;;128.00;2252.80;;;;;;5079856;28;20329;-75
2021/12/27 04:56:28;;;;;;;26.33;14.35;;;128.00;2252.80;;;;;;5081403;28;20553;-84
2021/12/27 04:58:54;;;;;;;;;;;128.20;2252.80;;;;;;5081087;28;20029;-74
2021/12/27 05:01:20;;;;;;;23.75;14.27;;;128.10;2252.80;;;;;;5083056;28;19911;-78
2021/12/27 05:03:46;;;;;;;22.25;13.40;;;103.30;2227.20;;;;;;5076732;28;20484;-75
2021/12/27 05:06:13;;;;;;;;;;;128.00;2252.80;;;;;;5081646;28;20048;-84
2021/12/27 05:08:40;;;;;;;16.73;10.57;;;128.10;2252.80;;;;;;5081625;28;19958;-84
2021/12/27 05:11:07;;;;;;;26.35;13.93;;;128.00;2252.80;;;;;;5058369;28;20036;-76
2021/12/27 05:13:33;;;;;;;26.92;14.82;;;103.20;2227.20;;;;;;5074724;28;20053;-83
2021/12/27 05:16:01;;;;;;;23.73;13.77;;;128.40;2252.80;;;;;;5080306;28;20487;-74
2021/12/27 05:18:27;;;;;;;21.10;12.77;;;128.20;2252.80;;;;;;5076727;28;20031;-80
2021/12/27 05:20:53;;;;;;;;;;;128.20;2252.80;;;;;;5075451;28;20485;-86
2021/12/27 05:23:18;;;;;;;23.50;13.07;;;128.40;2252.80;;;;;;5083201;28;19992;-83
2021/12/27 05:25:44;;;;;;;;;;;128.20;2252.80;;;;;;5083335;28;20042;-82
2021/12/27 05:28:10;;;;;;;21.83;12.75;;;128.30;2252.80;;;;;;5086316;28;21511;-85
2021/12/27 05:30:37;;;;;;;22.40;13.63;;;128.30;2252.80;;;;;;5091638;28;20040;-74
2021/12/27 05:33:03;;;;;;;20.33;12.27;;;128.10;2252.80;;;;;;5091710;28;20073;-84
2021/12/27 05:35:29;;;;;;;21.63;11.98;;;128.00;2252.80;;;;;;5094716;28;20660;-85
2021/12/27 05:37:55;;;;;;;;;;;128.20;2252.80;;;;;;5094669;28;20107;-79
2021/12/27 05:40:22;;;;;;;20.58;11.63;;;128.30;2252.80;;;;;;5093048;28;19919;-81
2021/12/27 05:42:50;;;;;;;20.08;12.05;;;128.20;2252.80;;;;;;5091432;28;20087;-86
2021/12/27 05:45:16;;;;;;;24.58;13.27;;;128.10;2252.80;;;;;;5086976;28;20059;-75
2021/12/27 05:47:43;;;;;;;23.13;13.10;;;128.10;2252.80;;;;;;5071398;28;20020;-76
2021/12/27 05:50:13;;;;;;;21.30;12.43;;;128.10;2252.80;;;;;;5096058;28;20511;-85
2021/12/27 05:52:39;;;;;;;23.50;14.48;;;128.20;2252.80;;;;;;5092668;28;20041;-75
2021/12/27 05:55:05;;;;;;;;;;;128.20;2252.80;;;;;;5087473;28;20079;-82
2021/12/27 05:57:31;;;;;;;20.25;11.25;;;128.20;2252.80;;;;;;5083661;28;19912;-74
2021/12/27 05:59:57;;;;;;;;;;;128.30;2252.80;;;;;;5075705;28;20384;-74
2021/12/27 06:02:23;;;;;;;22.45;12.32;;;128.30;2252.80;;;;;;5091613;28;19947;-74
2021/12/27 06:04:49;;;;;;;24.60;13.35;;;128.10;2252.80;;;;;;5095297;28;20024;-73
2021/12/27 06:07:15;;;;;;;;;;;128.30;2252.80;;;;;;5095643;28;20028;-73
2021/12/27 06:09:40;;;;;;;28.25;13.88;;;128.20;2252.80;;;;;;5088978;28;20279;-73
2021/12/27 06:12:06;;;;;;;;;;;128.00;2252.80;;;;;;5075109;28;20021;-74
2021/12/27 06:14:32;;;;;;;36.28;16.35;;;128.00;2252.80;;;;;;5056847;28;19953;-73
2021/12/27 06:16:58;;;;;;;;;;;103.30;2227.20;;;;;;5075371;28;20028;-73
2021/12/27 06:19:23;;;;;;;28.42;15.45;;;103.10;2227.20;;;;;;5077344;28;20300;-73
2021/12/27 06:21:49;;;;;;;;;;;103.10;2227.20;;;;;;5086186;28;20047;-74
2021/12/27 06:24:15;;;;;;;25.50;13.80;;;103.20;2227.20;;;;;;5074479;28;19945;-73
2021/12/27 06:26:41;;;;;;;;;;;103.10;2227.20;;;;;;5080566;28;20059;-73
2021/12/27 06:29:07;;;;;;;18.42;11.48;;;103.10;2227.20;;;;;;5076051;28;19912;-74
2021/12/27 06:31:32;;;;;;;;;;;103.20;2227.20;;;;;;5095410;28;20441;-74
2021/12/27 06:33:58;;;;;;;30.08;15.05;;;103.00;2227.20;;;;;;5094507;28;19904;-73
2021/12/27 06:36:24;;;;;;;;;;;102.80;2227.20;;;;;;5095113;28;20024;-74
2021/12/27 06:38:50;;;;;;;20.85;12.10;;;102.90;2227.20;;;;;;5094624;28;19911;-74
2021/12/27 06:41:16;;;;;;;26.63;14.43;;;103.00;2227.20;;;;;;5094547;28;20028;-73
2021/12/27 06:43:42;;;;;;;;;;;103.00;2227.20;;;;;;5095512;28;20432;-73
2021/12/27 06:46:07;;;;;;;30.38;16.58;;;102.90;2227.20;;;;;;5093076;28;19915;-76
2021/12/27 06:48:33;;;;;;;;;;;103.00;2227.20;;;;;;5094634;28;20024;-73
2021/12/27 06:50:59;;;;;;;23.48;13.43;;;103.10;2227.20;;;;;;5074304;28;20046;-73
2021/12/27 06:53:28;;;;;;;;;;;103.10;2227.20;;;;;;5094960;28;20027;-73
2021/12/27 06:55:54;;;;;;;29.65;13.32;;;103.20;2227.20;;;;;;5093891;28;19915;-74
2021/12/27 06:58:20;;;;;;;;;;;103.10;2227.20;;;;;;5094577;28;20028;-75
2021/12/27 07:00:45;;;;;;;22.05;13.60;;;103.10;2227.20;;;;;;5088860;28;19908;-74
2021/12/27 07:03:11;;;;;;;;;;;103.30;2227.20;;;;;;5074335;28;20466;-74
2021/12/27 07:05:37;;;;;;;31.58;16.65;;;128.00;2252.80;;;;;;5073700;28;19910;-75
2021/12/27 07:08:03;;;;;;;30.85;16.38;;;128.20;2252.80;;;;;;5055687;28;20063;-74
2021/12/27 07:10:31;;;;;;;;;;;128.00;2252.80;;;;;;5074335;28;20036;-74
2021/12/27 07:12:56;;;;;;;;;;;103.30;2227.20;;;;;;5074161;28;19904;-75
2021/12/27 07:15:22;;;;;;;59.83;25.92;;;103.30;2227.20;;;;;;5084353;28;19957;-79
2021/12/27 07:17:48;;;;;;;;;;;128.10;2252.80;;;;;;5093927;28;20055;-85
2021/12/27 07:20:13;;;;;;;126.22;46.40;;;103.30;2227.20;;;;;;5093812;28;20287;-75
2021/12/27 07:22:39;;;;;;;;;;;103.30;2227.20;;;;;;5094284;28;20020;-75
2021/12/27 07:25:05;;;;;;;52.72;27.48;;;103.20;2227.20;;;;;;5093217;28;20029;-75
2021/12/27 07:27:31;;;;;;;44.38;23.10;;;103.10;2227.20;;;;;;5078853;28;20146;-73
2021/12/27 07:29:57;;;;;;;;;;;103.30;2227.20;;;;;;5088072;28;20555;-75
2021/12/27 07:32:23;;;;;;;24.75;15.95;;;128.20;2252.80;;;;;;5081881;28;19908;-73
2021/12/27 07:34:49;;;;;;;47.63;22.65;;;128.00;2252.80;;;;;;5086413;28;20460;-74
2021/12/27 07:37:16;;;;;;;83.05;32.70;;;103.20;2227.20;;;;;;5085533;28;20112;-75
2021/12/27 07:39:43;;;;;;;93.88;35.15;;;103.20;2227.20;;;;;;5092874;28;20016;-74
2021/12/27 07:42:09;;;;;;;45.83;23.25;;;128.10;2252.80;;;;;;5093106;28;20024;-74
2021/12/27 07:44:34;;;;;;;;;;;128.30;2252.80;;;;;;5093337;28;20031;-73
2021/12/27 07:47:00;;;;;;;36.22;19.80;;;128.30;2252.80;;;;;;5093507;28;20279;-83
2021/12/27 07:49:27;;;;;;;39.28;21.70;;;128.20;2252.80;;;;;;5092805;28;20012;-74
2021/12/27 07:51:52;;;;;;;;;;;128.20;2252.80;;;;;;5090992;28;20023;-74
2021/12/27 07:54:18;;;;;;;46.55;22.30;;;128.00;2252.80;;;;;;5075686;28;19904;-76
2021/12/27 07:56:44;;;;;;;;;;;103.20;2227.20;;;;;;5093339;28;20421;-81
2021/12/27 07:59:10;;;;;;;26.38;16.92;;;103.30;2227.20;;;;;;5092928;28;20436;-73
2021/12/27 08:01:38;;;;;;;26.10;17.23;;;103.20;2227.20;;;;;;5090336;28;20145;-75
2021/12/27 08:04:08;;;;;;;24.98;15.35;;;128.10;2252.80;;;;;;5092966;28;20051;-75
2021/12/27 08:06:35;;;;;;;31.20;18.90;;;128.00;2252.80;;;;;;5083838;28;20017;-74
2021/12/27 08:09:00;;;;;;;40.00;22.85;;;128.10;2252.80;;;;;;5063575;28;20025;-78
2021/12/27 08:11:26;;;;;;;;;;;128.20;2252.80;;;;;;5083743;28;20475;-75
2021/12/27 08:13:53;;;;;;;37.53;22.42;;;128.40;2252.80;;;;;;5062941;28;19908;-78
2021/12/27 08:16:23;;;;;;;35.58;20.88;;;128.20;2252.80;;;;;;5081786;28;20077;-78
2021/12/27 08:18:50;;;;;;;31.98;19.67;;;128.40;2252.80;;;;;;5093352;28;20043;-83
2021/12/27 08:21:16;;;;;;;31.30;19.55;;;128.40;2252.80;;;;;;5092982;28;20035;-81
2021/12/27 08:23:42;;;;;;;;;;;128.60;2252.80;;;;;;5093852;28;20024;-81
2021/12/27 08:26:08;;;;;;;33.25;18.55;;;128.70;2252.80;;;;;;5093424;28;19911;-77
2021/12/27 08:28:33;;;;;;;;;;;128.70;2252.80;;;;;;5092388;28;20043;-74
2021/12/27 08:30:59;;;;;;;33.13;18.85;;;128.60;2252.80;;;;;;5092612;28;19920;-77
2021/12/27 08:33:25;;;;;;;;;;;128.70;2252.80;;;;;;5092320;28;20024;-75
2021/12/27 08:35:50;;;;;;;30.20;17.85;;;128.70;2252.80;;;;;;5092773;28;19908;-79
2021/12/27 08:38:18;;;;;;;;;;;128.70;2252.80;;;;;;5088167;28;20476;-82
2021/12/27 08:40:44;;;;;;;34.22;19.45;;;128.70;2252.80;;;;;;5076224;28;19905;-79
2021/12/27 08:43:10;;;;;;;55.80;27.63;;;128.80;2252.80;;;;;;5082190;28;20020;-84
2021/12/27 08:45:35;;;;;;;;;;;128.90;2252.80;;;;;;5076878;28;20074;-82
2021/12/27 08:48:01;;;;;;;49.05;26.80;;;128.90;2252.80;;;;;;5087438;28;19911;-83
2021/12/27 08:50:27;;;;;;;;;;;128.90;2252.80;;;;;;5083241;28;20119;-82
2021/12/27 08:52:53;;;;;;;44.20;22.17;;;153.60;2252.80;;;;;;5072368;28;19950;-76
2021/12/27 08:55:18;;;;;;;;;;;153.60;2252.80;;;;;;5072776;28;20048;-78
2021/12/27 08:57:45;;;;;;;47.65;21.58;;;153.60;2252.80;;;;;;5072287;28;19908;-74
2021/12/27 09:00:14;;;;;;;47.35;25.33;;;153.70;2252.80;;;;;;5072857;28;20050;-74
2021/12/27 09:02:40;;;;;;;64.35;26.77;;;153.70;2252.80;;;;;;5083579;28;20023;-78
2021/12/27 09:05:06;;;;;;;;;;;153.80;2252.80;;;;;;5080480;28;20431;-78
2021/12/27 09:07:32;;;;;;;50.55;20.67;;;153.80;2252.80;;;;;;5076039;28;19908;-80
2021/12/27 09:09:57;;;;;;;;;;;153.80;2252.80;;;;;;5077850;28;20487;-78
2021/12/27 09:12:23;;;;;;;45.83;24.85;;;153.60;2252.80;;;;;;5088894;28;19904;-76
2021/12/27 09:14:50;;;;;;;;;;;128.80;2252.80;;;;;;5090176;28;20020;-76
2021/12/27 09:17:17;;;;;;;43.92;22.20;;;128.60;2252.80;;;;;;5079250;28;19911;-85
2021/12/27 09:19:43;;;;;;;46.03;21.55;;;128.40;2252.80;;;;;;5077468;28;20032;-81
2021/12/27 09:22:09;;;;;;;;;;;128.20;2252.80;;;;;;5086405;28;20012;-81
2021/12/27 09:24:36;;;;;;;39.95;21.92;;;128.20;2252.80;;;;;;5096789;28;19979;-80
2021/12/27 09:27:02;;;;;;;38.28;18.77;;;128.40;2252.80;;;;;;5077222;28;20051;-76
2021/12/27 09:29:28;;;;;;;;;;;128.40;2252.80;;;;;;5097047;28;20024;-77
2021/12/27 09:31:53;;;;;;;50.80;26.85;;;128.30;2252.80;;;;;;5095815;28;20382;-83
2021/12/27 09:34:19;;;;;;;;;;;128.30;2252.80;;;;;;5085541;28;20020;-82
2021/12/27 09:36:45;;;;;;;28.35;15.15;;;128.10;2252.80;;;;;;5085630;28;19913;-82
2021/12/27 09:39:11;;;;;;;25.73;12.65;;;128.00;2252.80;;;;;;5085391;28;20020;-81
2021/12/27 09:41:37;;;;;;;32.00;17.75;;;128.60;2252.80;;;;;;5087831;28;20090;-79
2021/12/27 09:44:04;;;;;;;;;;;128.00;2252.80;;;;;;5088006;28;20020;-80
2021/12/27 09:46:31;;;;;;;19.33;10.00;;;103.30;2227.20;;;;;;5084864;28;19911;-83
2021/12/27 09:48:59;;;;;;;20.48;12.70;;;103.10;2227.20;;;;;;5088854;28;20732;-76
2021/12/27 09:51:26;;;;;;;20.42;11.52;;;103.30;2227.20;;;;;;5078388;28;20043;-82
2021/12/27 09:53:53;;;;;;;27.17;12.68;;;103.30;2227.20;;;;;;5060771;28;20476;-81
2021/12/27 09:56:19;;;;;;;29.73;11.73;;;103.30;2227.20;;;;;;5079124;28;20024;-74
2021/12/27 09:58:44;;;;;;;;;;;128.00;2252.80;;;;;;5079404;28;20020;-74
2021/12/27 10:01:10;;;;;;;23.15;11.88;;;128.00;2252.80;;;;;;5075545;28;20388;-82
2021/12/27 10:03:48;;;;;;;30.77;13.43;;;128.10;2252.80;;;;;;5075345;28;20074;-75
2021/12/27 10:06:15;;;;;;;20.60;11.32;;;128.00;2252.80;;;;;;5075066;28;20024;-75
2021/12/27 10:08:49;;;;;;;13.15;7.40;;;128.40;2252.80;;;;;;5075904;28;20032;-84
2021/12/27 10:11:21;;;;;;;28.73;11.23;;;128.00;2252.80;;;;;;5075233;28;20024;-76
2021/12/27 10:14:07;;;;;;;14.50;8.52;;;103.20;2227.20;;;;;;5057474;28;20031;-75
2021/12/27 10:16:44;;;;;;;16.33;9.43;;;128.00;2252.80;;;;;;5075445;28;20024;-75
2021/12/27 10:19:15;;;;;;;19.35;8.13;;;128.20;2252.80;;;;;;5075243;28;20028;-83
2021/12/27 10:21:41;;;;;;;25.05;12.38;;;128.20;2252.80;;;;;;5075397;28;20025;-76
2021/12/27 10:24:10;;;;;;;22.38;12.13;;;128.10;2252.80;;;;;;5075297;28;20476;-77
2021/12/27 10:26:37;;;;;;;10.90;7.30;;;128.20;2252.80;;;;;;5056702;28;20399;-84
2021/12/27 10:29:27;;;;;;;21.50;9.98;;;128.30;2252.80;;;;;;5075351;28;20059;-75
2021/12/27 10:32:09;;;;;;;13.80;9.15;;;128.10;2252.80;;;;;;4974312;28;20050;-75
2021/12/27 10:34:43;;;;;;;16.48;9.07;;;128.10;2252.80;;;;;;4974161;28;20035;-76
2021/12/27 10:37:24;;;;;;;20.65;9.85;;;128.20;2252.80;;;;;;4974185;28;20666;-75
2021/12/27 10:40:01;;;;;;;21.27;10.40;;;128.20;2252.80;;;;;;4976880;28;20027;-75
2021/12/27 10:42:31;;;;;;;19.80;9.07;;;128.30;2252.80;;;;;;4982310;28;20121;-75
2021/12/27 10:45:00;;;;;;;21.90;10.95;;;128.20;2252.80;;;;;;4977893;28;20053;-80
2021/12/27 10:47:32;;;;;;;35.00;13.20;;;128.20;2252.80;;;;;;4957702;28;20185;-75
2021/12/27 10:50:08;;;;;;;46.80;17.08;;;128.20;2252.80;;;;;;4974054;28;20046;-80
2021/12/27 10:52:57;;;;;;;42.97;16.33;;;128.40;2252.80;;;;;;4974219;28;20033;-83
2021/12/27 10:55:43;;;;;;;38.45;19.38;;;128.10;2252.80;;;;;;4974952;28;20123;-81
2021/12/27 10:58:18;;;;;;;34.50;15.60;;;128.00;2252.80;;;;;;4974749;28;20031;-78
2021/12/27 11:01:07;;;;;;;73.45;24.13;;;128.30;2252.80;;;;;;4974285;28;20033;-84
2021/12/27 11:03:39;;;;;;;20.15;11.38;;;128.30;2252.80;;;;;;4985566;28;20034;-84
2021/12/27 11:06:07;;;;;;;82.68;25.27;;;128.40;2252.80;;;;;;4984788;28;20513;-77
2021/12/27 11:08:35;;;;;;;55.63;19.48;;;128.40;2252.80;;;;;;5018514;28;20039;-84
2021/12/27 11:11:01;;;;;;;28.13;13.93;;;128.50;2252.80;;;;;;5083220;28;20043;-76
2021/12/27 11:13:29;;;;;;;26.65;13.32;;;128.40;2252.80;;;;;;5079281;28;20063;-81
2021/12/27 11:15:55;;;;;;;80.00;25.30;;;128.50;2252.80;;;;;;5094385;28;20107;-74
2021/12/27 11:18:21;;;;;;;31.67;13.13;;;103.30;2227.20;;;;;;5094714;28;20136;-75
2021/12/27 11:20:50;;;;;;;;;;;128.40;2252.80;;;;;;5094616;28;20027;-77
2021/12/27 11:23:16;;;;;;;22.58;10.57;;;128.50;2252.80;;;;;;5093935;28;19911;-75
2021/12/27 11:25:43;;;;;;;;;;;128.50;2252.80;;;;;;5094910;28;20020;-75
2021/12/27 11:28:26;;;;;;;18.02;7.85;;;128.50;2252.80;;;;;;5093845;28;20390;-75
2021/12/27 11:30:52;;;;;;;29.35;11.60;;;128.10;2252.80;;;;;;5075948;28;20400;-75
2021/12/27 11:33:20;;;;;;;26.00;11.55;;;128.30;2252.80;;;;;;5093235;28;20084;-74
2021/12/27 11:35:55;;;;;;;44.22;15.93;;;128.20;2252.80;;;;;;5093632;28;20024;-78
2021/12/27 11:38:37;;;;;;;54.13;16.27;;;128.10;2252.80;;;;;;5094068;28;20031;-80
2021/12/27 11:41:23;;;;;;;76.20;28.45;;;128.20;2252.80;;;;;;5093872;28;20034;-79
2021/12/27 11:43:55;;;;;;;101.35;32.00;;;128.00;2252.80;;;;;;5075187;28;20473;-81
2021/12/27 11:46:31;;;;;;;60.22;20.58;;;128.20;2252.80;;;;;;5093968;28;20039;-76
2021/12/27 11:48:59;;;;;;;41.13;13.50;;;128.20;2252.80;;;;;;5075309;28;20482;-75
2021/12/27 11:51:36;;;;;;;61.75;18.77;;;128.20;2252.80;;;;;;5093538;28;20032;-75
2021/12/27 11:54:05;;;;;;;41.83;16.02;;;128.20;2252.80;;;;;;5093706;28;20016;-75
2021/12/27 11:56:44;;;;;;;49.00;18.27;;;128.00;2252.80;;;;;;5075324;28;20042;-80
2021/12/27 11:59:22;;;;;;;67.03;21.15;;;128.20;2252.80;;;;;;5082388;28;20025;-79
2021/12/27 12:01:49;;;;;;;67.40;22.63;;;103.30;2227.20;;;;;;5080522;28;20031;-82
2021/12/27 12:04:40;;;;;;;49.03;16.85;;;103.20;2227.20;;;;;;5079549;28;20047;-80
2021/12/27 12:07:11;;;;;;;28.58;13.02;;;103.30;2227.20;;;;;;5081215;28;20077;-80
2021/12/27 12:09:50;;;;;;;48.35;18.13;;;103.20;2227.20;;;;;;5075936;28;20020;-81
2021/12/27 12:12:15;;;;;;;73.25;21.80;;;103.20;2227.20;;;;;;5057453;28;20048;-85
2021/12/27 12:14:42;;;;;;;;;;;128.00;2252.80;;;;;;5073761;28;20532;-76
2021/12/27 12:17:11;;;;;;;41.42;15.82;;;103.30;2227.20;;;;;;5075845;28;20029;-79
2021/12/27 12:19:41;;;;;;;34.65;15.95;;;103.20;2227.20;;;;;;5078539;28;20023;-77
2021/12/27 12:22:29;;;;;;;53.90;17.83;;;103.30;2227.20;;;;;;5062016;28;20051;-79
2021/12/27 12:25:16;;;;;;;30.13;16.90;;;103.30;2227.20;;;;;;5075219;28;20009;-80
2021/12/27 12:27:54;;;;;;;33.35;16.88;;;103.30;2227.20;;;;;;5066995;28;20480;-75